createdAt,value
2018-07-07T00:01:30.500Z,78.58
2018-07-07T00:04:04.473Z,78.46
2018-07-07T00:06:37.013Z,78.57
2018-07-07T00:09:09.832Z,78.58
2018-07-07T00:11:42.176Z,78.88
2018-07-07T00:14:15.608Z,78.96
2018-07-07T00:16:49.713Z,78.64
2018-07-07T00:19:22.188Z,78.58
2018-07-07T00:21:56.796Z,78.60
2018-07-07T00:24:32.477Z,79.06
2018-07-07T00:27:07.264Z,78.87
2018-07-07T00:29:40.226Z,78.60
2018-07-07T00:32:16.297Z,77.72
2018-07-07T00:34:48.785Z,77.29
2018-07-07T00:37:21.321Z,76.90
2018-07-07T00:39:54.096Z,76.11
2018-07-07T00:42:26.622Z,76.39
2018-07-07T00:45:03.349Z,76.61
2018-07-07T00:47:37.803Z,76.49
2018-07-07T00:50:13.467Z,76.43
2018-07-07T00:52:46.095Z,76.28
2018-07-07T00:55:18.832Z,75.42
2018-07-07T00:57:53.117Z,74.69
2018-07-07T01:00:51.940Z,73.09
2018-07-07T01:03:26.508Z,72.50
2018-07-07T01:06:02.750Z,71.52
2018-07-07T01:08:37.728Z,70.97
2018-07-07T01:11:11.466Z,70.58
2018-07-07T01:13:43.965Z,70.27
2018-07-07T01:16:17.769Z,69.75
2018-07-07T01:18:50.348Z,68.66
2018-07-07T01:21:23.521Z,68.18
2018-07-07T01:23:57.473Z,68.26
2018-07-07T01:26:31.245Z,68.19
2018-07-07T01:29:03.758Z,68.01
2018-07-07T01:31:43.829Z,67.70
2018-07-07T01:34:17.274Z,67.28
2018-07-07T01:36:50.794Z,66.91
2018-07-07T01:39:26.489Z,66.39
2018-07-07T01:42:07.373Z,66.08
2018-07-07T01:44:40.501Z,65.43
2018-07-07T01:47:13.928Z,65.11
2018-07-07T01:49:47.737Z,64.17
2018-07-07T01:52:23.193Z,63.01
2018-07-07T01:54:58.509Z,62.30
2018-07-07T01:57:31.825Z,61.08
2018-07-07T02:00:06.411Z,61.01
2018-07-07T02:02:40.708Z,60.84
2018-07-07T02:05:14.524Z,61.31
2018-07-07T02:07:47.880Z,60.43
2018-07-07T02:10:25.421Z,59.03
2018-07-07T02:12:59.077Z,58.80
2018-07-07T02:15:32.436Z,58.50
2018-07-07T02:18:06.460Z,57.69
2018-07-07T02:20:38.979Z,57.38
2018-07-07T02:23:11.621Z,56.76
2018-07-07T02:25:45.545Z,57.00
2018-07-07T02:28:18.012Z,56.83
2018-07-07T02:30:51.315Z,57.14
2018-07-07T02:33:27.013Z,57.55
2018-07-07T02:35:59.457Z,57.38
2018-07-07T02:38:32.174Z,57.15
2018-07-07T02:41:04.705Z,56.94
2018-07-07T02:43:37.525Z,56.67
2018-07-07T02:46:10.689Z,56.52
2018-07-07T02:48:44.232Z,56.11
2018-07-07T02:51:16.834Z,56.21
2018-07-07T02:53:49.445Z,55.45
2018-07-07T02:56:23.411Z,55.42
2018-07-07T02:58:55.976Z,55.49
2018-07-07T03:01:28.377Z,55.57
2018-07-07T03:04:01.210Z,55.39
2018-07-07T03:06:34.058Z,55.87
2018-07-07T03:09:06.649Z,55.03
2018-07-07T03:11:40.654Z,54.92
2018-07-07T03:14:13.206Z,54.81
2018-07-07T03:16:45.734Z,54.73
2018-07-07T03:19:19.898Z,53.81
2018-07-07T03:21:52.417Z,53.59
2018-07-07T03:24:24.838Z,53.55
2018-07-07T03:26:57.548Z,53.76
2018-07-07T03:29:30.285Z,53.23
2018-07-07T03:32:03.021Z,52.95
2018-07-07T03:34:35.973Z,52.78
2018-07-07T03:37:08.638Z,52.38
2018-07-07T03:39:41.409Z,52.98
2018-07-07T03:42:14.528Z,53.10
2018-07-07T03:44:46.893Z,53.83
2018-07-07T03:47:19.482Z,53.24
2018-07-07T03:49:52.732Z,53.05
2018-07-07T03:52:25.185Z,53.17
2018-07-07T03:54:57.608Z,53.14
2018-07-07T03:57:30.412Z,52.94
2018-07-07T04:00:05.321Z,52.37
2018-07-07T04:02:37.833Z,52.44
2018-07-07T04:05:10.568Z,51.96
2018-07-07T04:07:43.129Z,52.28
2018-07-07T04:10:15.462Z,51.75
2018-07-07T04:12:49.507Z,51.95
2018-07-07T04:15:22.109Z,52.51
2018-07-07T04:17:54.692Z,52.10
2018-07-07T04:20:28.708Z,52.34
2018-07-07T04:23:01.196Z,52.79
2018-07-07T04:25:33.654Z,52.68
2018-07-07T04:28:06.592Z,53.08
2018-07-07T04:30:38.992Z,53.56
2018-07-07T04:33:11.836Z,54.10
2018-07-07T04:35:45.133Z,54.05
2018-07-07T04:38:17.975Z,54.05
2018-07-07T04:40:50.560Z,54.09
2018-07-07T04:43:24.129Z,53.89
2018-07-07T04:45:56.547Z,53.84
2018-07-07T04:48:30.576Z,54.02
2018-07-07T04:51:03.785Z,54.29
2018-07-07T04:53:37.188Z,54.31
2018-07-07T04:56:09.834Z,54.50
2018-07-07T04:58:43.716Z,54.51
2018-07-07T05:01:17.076Z,54.87
2018-07-07T05:03:51.477Z,55.00
2018-07-07T05:06:24.441Z,54.82
2018-07-07T05:08:56.896Z,54.73
2018-07-07T05:11:29.484Z,54.61
2018-07-07T05:14:02.301Z,54.15
2018-07-07T05:16:35.393Z,53.39
2018-07-07T05:19:09.149Z,53.09
2018-07-07T05:21:43.077Z,53.08
2018-07-07T05:24:16.424Z,52.56
2018-07-07T05:26:49.723Z,52.89
2018-07-07T05:29:22.645Z,52.64
2018-07-07T05:31:55.565Z,52.24
2018-07-07T05:34:28.255Z,52.14
2018-07-07T05:37:01.516Z,51.52
2018-07-07T05:39:35.752Z,50.32
2018-07-07T05:42:09.484Z,50.89
2018-07-07T05:44:42.441Z,50.44
2018-07-07T05:47:14.901Z,50.34
2018-07-07T05:49:47.186Z,51.47
2018-07-07T05:52:20.881Z,51.27
2018-07-07T05:54:53.348Z,51.17
2018-07-07T05:57:26.187Z,50.34
2018-07-07T06:00:00.165Z,49.06
2018-07-07T06:02:34.696Z,49.66
2018-07-07T06:05:07.459Z,48.17
2018-07-07T06:07:41.325Z,48.98
2018-07-07T06:10:13.949Z,48.33
2018-07-07T06:12:48.244Z,48.13
2018-07-07T06:15:23.049Z,47.36
2018-07-07T06:17:56.109Z,47.52
2018-07-07T06:20:30.074Z,46.74
2018-07-07T06:23:03.332Z,46.16
2018-07-07T06:25:36.093Z,44.96
2018-07-07T06:28:09.425Z,42.76
2018-07-07T06:30:44.029Z,42.15
2018-07-07T06:33:17.186Z,40.16
2018-07-07T06:35:50.147Z,41.19
2018-07-07T06:38:24.002Z,39.11
2018-07-07T06:40:56.548Z,38.52
2018-07-07T06:43:31.547Z,37.73
2018-07-07T06:46:05.465Z,37.96
2018-07-07T06:48:39.345Z,38.14
2018-07-07T06:51:11.922Z,39.05
2018-07-07T06:53:44.743Z,39.55
2018-07-07T06:56:18.126Z,39.38
2018-07-07T06:58:51.489Z,38.95
2018-07-07T07:01:26.481Z,39.36
2018-07-07T07:04:00.092Z,39.71
2018-07-07T07:06:34.136Z,40.94
2018-07-07T07:09:09.246Z,41.69
2018-07-07T07:11:43.298Z,41.34
2018-07-07T07:14:16.678Z,42.21
2018-07-07T07:16:51.175Z,41.34
2018-07-07T07:19:23.746Z,40.91
2018-07-07T07:21:56.342Z,40.54
2018-07-07T07:24:30.866Z,40.55
2018-07-07T07:27:03.484Z,40.50
2018-07-07T07:29:36.134Z,40.69
2018-07-07T07:32:14.794Z,40.74
2018-07-07T07:34:54.515Z,40.63
2018-07-07T07:37:28.650Z,40.31
2018-07-07T07:40:02.649Z,39.88
2018-07-07T07:42:35.234Z,39.94
2018-07-07T07:45:09.223Z,39.62
2018-07-07T07:47:42.265Z,39.24
2018-07-07T07:50:16.710Z,39.41
2018-07-07T07:52:53.330Z,38.57
2018-07-07T07:55:26.168Z,38.09
2018-07-07T07:57:58.828Z,37.54
2018-07-07T08:00:35.030Z,35.71
2018-07-07T08:03:08.578Z,33.05
2018-07-07T08:05:44.110Z,31.04
2018-07-07T08:08:18.598Z,30.38
2018-07-07T08:10:51.439Z,29.44
2018-07-07T08:13:24.821Z,29.51
2018-07-07T08:15:57.384Z,29.25
2018-07-07T08:18:34.418Z,28.14
2018-07-07T08:21:07.874Z,27.84
2018-07-07T08:23:41.938Z,27.40
2018-07-07T08:26:16.115Z,26.87
2018-07-07T08:28:48.657Z,26.46
2018-07-07T08:31:29.146Z,27.30
2018-07-07T08:34:01.818Z,26.42
2018-07-07T08:36:36.076Z,26.85
2018-07-07T08:39:09.966Z,27.37
2018-07-07T08:41:42.744Z,26.77
2018-07-07T08:44:15.995Z,26.88
2018-07-07T08:46:49.246Z,27.51
2018-07-07T08:49:22.673Z,27.55
2018-07-07T08:51:55.254Z,26.52
2018-07-07T08:54:31.385Z,26.71
2018-07-07T08:57:05.003Z,26.75
2018-07-07T08:59:38.362Z,26.68
2018-07-07T09:02:11.542Z,26.72
2018-07-07T09:04:44.583Z,26.46
2018-07-07T09:07:19.206Z,27.15
2018-07-07T09:09:53.110Z,26.69
2018-07-07T09:12:27.031Z,26.05
2018-07-07T09:14:59.736Z,25.01
2018-07-07T09:17:34.331Z,24.76
2018-07-07T09:20:08.758Z,25.16
2018-07-07T09:22:42.610Z,26.18
2018-07-07T09:25:16.262Z,25.28
2018-07-07T09:27:48.721Z,25.16
2018-07-07T09:30:23.614Z,26.18
2018-07-07T09:32:58.324Z,26.16
2018-07-07T09:35:34.858Z,27.64
2018-07-07T09:38:09.299Z,27.31
2018-07-07T09:40:43.221Z,27.04
2018-07-07T09:43:26.006Z,27.37
2018-07-07T09:46:02.735Z,26.76
2018-07-07T09:48:42.829Z,26.69
2018-07-07T09:51:16.951Z,27.02
2018-07-07T09:54:23.557Z,27.91
2018-07-07T09:57:10.233Z,26.92
2018-07-07T09:59:46.317Z,27.44
2018-07-07T10:02:22.933Z,28.04
2018-07-07T10:04:56.762Z,27.19
2018-07-07T10:07:32.107Z,27.86
2018-07-07T10:10:07.372Z,28.69
2018-07-07T10:12:42.540Z,27.64
2018-07-07T10:15:18.546Z,27.04
2018-07-07T10:17:55.197Z,27.78
2018-07-07T10:20:29.224Z,27.98
2018-07-07T10:23:04.697Z,27.58
2018-07-07T10:25:47.717Z,26.76
2018-07-07T10:28:23.893Z,25.52
2018-07-07T10:31:03.942Z,25.56
2018-07-07T10:33:39.318Z,26.18
2018-07-07T10:36:15.572Z,27.16
2018-07-07T10:38:52.199Z,24.83
2018-07-07T10:41:32.777Z,24.37
2018-07-07T10:44:11.973Z,24.27
2018-07-07T10:46:48.426Z,23.98
2018-07-07T10:49:26.622Z,25.51
2018-07-07T10:52:02.481Z,25.30
2018-07-07T10:54:35.529Z,24.47
2018-07-07T10:57:11.317Z,22.96
2018-07-07T10:59:48.091Z,23.59
2018-07-07T11:02:21.607Z,24.03
2018-07-07T11:04:54.174Z,25.36
2018-07-07T11:07:27.763Z,25.09
2018-07-07T11:10:01.005Z,25.60
2018-07-07T11:12:33.565Z,24.51
2018-07-07T11:15:08.198Z,24.49
2018-07-07T11:17:41.508Z,24.40
2018-07-07T11:20:15.627Z,24.88
2018-07-07T11:22:48.485Z,25.67
2018-07-07T11:25:22.485Z,24.93
2018-07-07T11:27:56.332Z,25.06
2018-07-07T11:30:29.224Z,25.93
2018-07-07T11:33:02.624Z,25.27
2018-07-07T11:35:36.433Z,25.80
2018-07-07T11:38:10.737Z,25.54
2018-07-07T11:40:44.895Z,26.12
2018-07-07T11:43:22.928Z,26.02
2018-07-07T11:45:56.098Z,27.13
2018-07-07T11:48:31.203Z,26.70
2018-07-07T11:51:05.670Z,26.86
2018-07-07T11:53:39.689Z,26.37
2018-07-07T11:56:16.279Z,26.90
2018-07-07T11:58:50.558Z,26.16
2018-07-07T12:01:26.768Z,26.39
2018-07-07T12:03:59.297Z,26.23
2018-07-07T12:06:34.626Z,27.42
2018-07-07T12:09:09.142Z,26.59
2018-07-07T12:11:42.380Z,27.18
2018-07-07T12:14:16.846Z,26.87
2018-07-07T12:16:51.029Z,26.59
2018-07-07T12:19:25.345Z,26.88
2018-07-07T12:22:01.674Z,27.34
2018-07-07T12:24:37.678Z,27.49
2018-07-07T12:27:18.589Z,27.89
2018-07-07T12:29:53.703Z,27.09
2018-07-07T12:32:26.956Z,27.28
2018-07-07T12:34:59.786Z,27.21
2018-07-07T12:37:32.485Z,27.33
2018-07-07T12:40:06.229Z,27.31
2018-07-07T12:42:40.458Z,27.61
2018-07-07T12:45:19.085Z,26.74
2018-07-07T12:47:57.587Z,25.72
2018-07-07T12:50:33.001Z,25.83
2018-07-07T12:53:10.902Z,25.98
2018-07-07T12:55:45.694Z,25.51
2018-07-07T12:58:19.149Z,25.91
2018-07-07T13:00:51.718Z,25.48
2018-07-07T13:03:25.566Z,25.44
2018-07-07T13:05:59.601Z,25.69
2018-07-07T13:08:34.749Z,25.48
2018-07-07T13:11:07.561Z,24.95
2018-07-07T13:13:40.355Z,24.27
2018-07-07T13:16:19.769Z,24.30
2018-07-07T13:18:54.465Z,25.30
2018-07-07T13:21:29.786Z,25.62
2018-07-07T13:24:07.605Z,25.30
2018-07-07T13:26:42.845Z,25.37
2018-07-07T13:29:20.812Z,25.35
2018-07-07T13:31:53.593Z,25.64
2018-07-07T13:34:27.310Z,26.15
2018-07-07T13:37:01.109Z,25.67
2018-07-07T13:39:39.632Z,25.89
2018-07-07T13:42:16.300Z,25.93
2018-07-07T13:44:51.780Z,26.19
2018-07-07T13:47:24.944Z,26.52
2018-07-07T13:49:58.310Z,26.20
2018-07-07T13:52:33.190Z,26.12
2018-07-07T13:55:07.063Z,26.23
2018-07-07T13:57:41.758Z,26.13
2018-07-07T14:00:24.500Z,26.90
2018-07-07T14:03:09.348Z,26.51
2018-07-07T14:05:45.221Z,26.30
2018-07-07T14:08:46.177Z,26.20
2018-07-07T14:11:28.037Z,26.00
2018-07-07T14:14:01.448Z,25.57
2018-07-07T14:16:37.494Z,25.83
2018-07-07T14:19:12.137Z,25.83
2018-07-07T14:21:45.712Z,25.55
2018-07-07T14:24:19.477Z,25.93
2018-07-07T14:26:52.830Z,26.27
2018-07-07T14:29:26.345Z,26.37
2018-07-07T14:32:02.025Z,25.10
2018-07-07T14:34:43.940Z,25.41
2018-07-07T14:37:17.893Z,25.44
2018-07-07T14:39:56.676Z,25.40
2018-07-07T14:42:53.259Z,25.70
2018-07-07T14:45:28.792Z,26.06
2018-07-07T14:48:03.970Z,25.80
2018-07-07T14:50:36.587Z,25.28
2018-07-07T14:53:11.925Z,25.06
2018-07-07T14:55:45.917Z,25.70
2018-07-07T14:58:19.278Z,25.89
2018-07-07T15:00:52.740Z,25.47
2018-07-07T15:03:27.234Z,25.96
2018-07-07T15:06:08.537Z,25.73
2018-07-07T15:08:43.828Z,25.69
2018-07-07T15:11:19.118Z,25.16
2018-07-07T15:13:53.910Z,25.45
2018-07-07T15:16:31.758Z,25.20
2018-07-07T15:19:08.138Z,24.91
2018-07-07T15:21:42.205Z,24.30
2018-07-07T15:24:14.679Z,24.84
2018-07-07T15:26:49.571Z,25.05
2018-07-07T15:29:23.232Z,25.23
2018-07-07T15:31:57.767Z,25.29
2018-07-07T15:34:33.629Z,25.46
2018-07-07T15:37:09.342Z,25.52
2018-07-07T15:39:41.834Z,25.28
2018-07-07T15:42:14.675Z,25.71
2018-07-07T15:44:48.099Z,25.70
2018-07-07T15:47:21.530Z,25.95
2018-07-07T15:49:56.326Z,25.77
2018-07-07T15:52:28.906Z,25.30
2018-07-07T15:55:02.252Z,25.47
2018-07-07T15:57:35.514Z,25.78
2018-07-07T16:00:17.389Z,26.24
2018-07-07T16:02:53.594Z,26.97
2018-07-07T16:05:28.377Z,27.07
2018-07-07T16:08:03.597Z,27.28
2018-07-07T16:10:37.960Z,27.34
2018-07-07T16:13:15.910Z,26.93
2018-07-07T16:15:49.223Z,27.53
2018-07-07T16:18:22.669Z,27.85
2018-07-07T16:20:56.852Z,28.42
2018-07-07T16:23:34.817Z,28.79
2018-07-07T16:26:09.591Z,28.31
2018-07-07T16:28:44.859Z,28.17
2018-07-07T16:31:18.986Z,27.80
2018-07-07T16:33:53.726Z,27.59
2018-07-07T16:36:29.310Z,28.08
2018-07-07T16:39:05.199Z,28.22
2018-07-07T16:41:38.223Z,28.91
2018-07-07T16:44:18.709Z,29.39
2018-07-07T16:47:02.741Z,28.97
2018-07-07T16:49:35.957Z,29.09
2018-07-07T16:52:13.071Z,29.10
2018-07-07T16:54:49.584Z,29.09
2018-07-07T16:57:25.945Z,29.03
2018-07-07T17:00:01.405Z,29.05
2018-07-07T17:02:43.865Z,28.53
2018-07-07T17:05:20.361Z,28.93
2018-07-07T17:07:56.650Z,28.84
2018-07-07T17:10:29.475Z,29.28
2018-07-07T17:13:04.330Z,29.27
2018-07-07T17:15:38.035Z,29.27
2018-07-07T17:18:14.400Z,29.73
2018-07-07T17:20:47.820Z,30.25
2018-07-07T17:23:23.945Z,30.08
2018-07-07T17:26:01.377Z,30.12
2018-07-07T17:28:37.626Z,29.79
2018-07-07T17:31:13.182Z,30.00
2018-07-07T17:33:49.893Z,30.37
2018-07-07T17:36:23.770Z,30.76
2018-07-07T17:38:57.899Z,30.68
2018-07-07T17:41:36.112Z,30.57
2018-07-07T17:44:09.185Z,30.93
2018-07-07T17:46:43.000Z,30.61
2018-07-07T17:49:20.390Z,31.21
2018-07-07T17:51:53.997Z,31.21
2018-07-07T17:54:27.716Z,31.83
2018-07-07T17:57:04.818Z,32.10
2018-07-07T17:59:41.079Z,32.29
2018-07-07T18:02:21.673Z,32.33
2018-07-07T18:04:58.509Z,32.42
2018-07-07T18:07:31.074Z,32.28
2018-07-07T18:10:05.192Z,32.81
2018-07-07T18:12:47.260Z,33.18
2018-07-07T18:15:23.971Z,32.19
2018-07-07T18:17:57.810Z,32.25
2018-07-07T18:20:33.862Z,32.60
2018-07-07T18:23:09.081Z,33.13
2018-07-07T18:25:42.354Z,33.29
2018-07-07T18:28:20.272Z,33.74
2018-07-07T18:30:52.820Z,34.09
2018-07-07T18:33:27.812Z,34.50
2018-07-07T18:36:01.881Z,34.82
2018-07-07T18:38:40.389Z,35.27
2018-07-07T18:41:15.033Z,35.58
2018-07-07T18:43:48.624Z,35.69
2018-07-07T18:46:28.278Z,35.92
2018-07-07T18:49:01.385Z,36.24
2018-07-07T18:51:39.059Z,36.37
2018-07-07T18:54:14.738Z,36.62
2018-07-07T18:56:48.945Z,36.86
2018-07-07T18:59:25.948Z,37.06
2018-07-07T19:01:59.257Z,37.42
2018-07-07T19:04:39.476Z,37.71
2018-07-07T19:07:15.739Z,38.08
2018-07-07T19:09:50.478Z,38.41
2018-07-07T19:12:27.141Z,38.78
2018-07-07T19:15:05.590Z,39.25
2018-07-07T19:17:40.769Z,39.49
2018-07-07T19:20:33.004Z,39.63
2018-07-07T19:23:12.025Z,39.85
2018-07-07T19:25:51.576Z,40.17
2018-07-07T19:28:27.920Z,40.53
2018-07-07T19:31:05.158Z,41.08
2018-07-07T19:33:45.594Z,41.56
2018-07-07T19:36:27.702Z,41.99
2018-07-07T19:39:04.253Z,42.30
2018-07-07T19:41:39.373Z,42.52
2018-07-07T19:44:15.480Z,43.04
2018-07-07T19:46:50.576Z,43.82
2018-07-07T19:49:25.022Z,44.27
2018-07-07T19:52:02.916Z,44.89
2018-07-07T19:54:54.741Z,45.52
2018-07-07T19:57:31.830Z,46.00
2018-07-07T20:00:12.223Z,46.62
2018-07-07T20:02:47.011Z,46.90
2018-07-07T20:05:20.906Z,47.22
2018-07-07T20:07:54.629Z,47.76
2018-07-07T20:10:30.207Z,48.13
2018-07-07T20:13:05.255Z,48.83
2018-07-07T20:16:13.412Z,49.12
2018-07-07T20:19:21.837Z,49.58
2018-07-07T20:22:02.950Z,50.05
2018-07-07T20:24:39.513Z,50.32
2018-07-07T20:27:21.551Z,50.87
2018-07-07T20:29:57.529Z,51.20
2018-07-07T20:32:38.738Z,51.73
2018-07-07T20:35:17.881Z,52.27
2018-07-07T20:37:55.015Z,53.00
2018-07-07T20:40:29.229Z,53.38
2018-07-07T20:43:02.738Z,53.66
2018-07-07T20:45:39.851Z,53.98
2018-07-07T20:48:14.951Z,54.49
2018-07-07T20:50:49.146Z,54.53
2018-07-07T20:53:24.325Z,54.69
2018-07-07T20:55:57.421Z,54.74
2018-07-07T20:58:33.799Z,55.19
2018-07-07T21:01:09.650Z,55.65
2018-07-07T21:04:03.596Z,55.97
2018-07-07T21:06:38.676Z,56.33
2018-07-07T21:09:19.445Z,56.70
2018-07-07T21:11:56.621Z,57.14
2018-07-07T21:14:37.569Z,57.35
2018-07-07T21:17:16.338Z,57.58
2018-07-07T21:19:49.845Z,57.88
2018-07-07T21:22:29.084Z,58.12
2018-07-07T21:25:05.769Z,58.46
2018-07-07T21:27:42.168Z,58.79
2018-07-07T21:30:18.396Z,58.98
2018-07-07T21:32:55.613Z,59.25
2018-07-07T21:35:31.685Z,59.44
2018-07-07T21:38:27.286Z,59.54
2018-07-07T21:41:02.587Z,59.95
2018-07-07T21:43:38.157Z,60.34
2018-07-07T21:46:16.478Z,60.59
2018-07-07T21:48:51.168Z,60.79
2018-07-07T21:51:37.095Z,60.80
2018-07-07T21:54:14.081Z,61.04
2018-07-07T21:56:55.582Z,61.51
2018-07-07T21:59:28.854Z,61.52
2018-07-07T22:02:11.428Z,61.60
2018-07-07T22:04:56.657Z,62.06
2018-07-07T22:07:37.692Z,62.37
2018-07-07T22:10:21.549Z,62.37
2018-07-07T22:12:56.468Z,62.54
2018-07-07T22:15:34.716Z,62.69
2018-07-07T22:18:08.552Z,62.59
2018-07-07T22:22:08.278Z,62.37
2018-07-07T22:24:41.893Z,62.42
2018-07-07T22:27:15.842Z,62.51
2018-07-07T22:29:54.383Z,62.03
2018-07-07T22:32:37.873Z,61.52
2018-07-07T22:35:16.650Z,61.43
2018-07-07T22:37:50.706Z,61.53
2018-07-07T22:40:25.057Z,61.59
2018-07-07T22:42:59.443Z,61.58
2018-07-07T22:45:34.144Z,61.66
2018-07-07T22:48:09.853Z,61.88
2018-07-07T22:50:43.720Z,61.94
2018-07-07T22:53:17.805Z,62.10
2018-07-07T22:55:52.461Z,62.48
2018-07-07T22:58:25.936Z,62.89
2018-07-07T23:01:01.218Z,62.97
2018-07-07T23:03:34.752Z,63.29
2018-07-07T23:06:07.562Z,63.34
2018-07-07T23:08:40.826Z,63.29
2018-07-07T23:11:16.115Z,63.46
2018-07-07T23:13:49.097Z,63.59
2018-07-07T23:16:26.571Z,63.81
2018-07-07T23:19:06.707Z,63.59
2018-07-07T23:21:41.645Z,63.72
2018-07-07T23:24:15.187Z,63.58
2018-07-07T23:26:49.538Z,63.36
2018-07-07T23:29:22.976Z,63.52
2018-07-07T23:32:02.604Z,63.74
2018-07-07T23:34:38.781Z,63.94
2018-07-07T23:37:14.174Z,64.09
2018-07-07T23:39:51.821Z,64.23
2018-07-07T23:42:26.121Z,64.64
2018-07-07T23:45:03.686Z,64.91
2018-07-07T23:47:36.971Z,65.11
2018-07-07T23:50:13.236Z,65.33
2018-07-07T23:52:47.191Z,65.42
2018-07-07T23:55:20.623Z,65.38
2018-07-07T23:57:54.521Z,65.40
